Flight Track Log - Related Links

Times and Time Zones

All times are in EST time to prevent confusion due to time zone crossing. See the N400PU flight status page for this flight to view local times or setup timezone preferences in your user account.


Time Position Orientation Groundspeed Altitude Reporting Facility
EST Latitude Longitude Course Direction KTS MPH feet Rate Location/Type
Thu 09:09:16 PM 40.9242 -85.3122 246° West 176 203 6,800  Level Chicago Center
Thu 09:10:18 PM 40.8947 -85.4078 248° West 220 253 9,700 1,730 Climbing Chicago Center
Thu 09:11:07 PM 40.8756 -85.4800 251° West 263 303 10,000 290 Climbing Chicago Center
Thu 09:11:20 PM 40.8678 -85.4994 242° Southwest 260 299 10,000  Level Chicago Center
Thu 09:12:07 PM 40.8414 -85.5856 248° West 313 360 10,000  Level Chicago Center
Thu 09:12:22 PM 40.8358 -85.6042 248° West 301 346 10,000  Level Chicago Center
Thu 09:13:00 PM 40.8188 -85.6978 246° West  Level Estimated
Thu 09:13:08 PM 40.8094 -85.6886 248° West 291 335 10,000  Level Chicago Center
Thu 09:13:24 PM 40.8053 -85.7014 247° West 290 334 10,000  Level Chicago Center
Thu 09:14:00 PM 40.7912 -85.7809 246° West  Level FlightAware Approximate
Thu 09:14:08 PM 40.7817 -85.7806 249° West 284 327 10,000  Level Chicago Center
Thu 09:14:26 PM 40.7750 -85.7992 245° Southwest 289 333 10,000  Level Chicago Center
Thu 09:15:09 PM 40.7453 -85.8828 245° Southwest 291 335 10,000  Level Chicago Center
Thu 09:15:28 PM 40.7408 -85.8958 246° West 291 335 10,000  Level Chicago Center
Thu 09:16:10 PM 40.7072 -85.9742 241° Southwest 297 342 10,000  Level Chicago Center
Thu 09:16:31 PM 40.6911 -86.0078 238° Southwest 294 338 10,000  Level Chicago Center
Thu 09:17:10 PM 40.6625 -86.0706 239° Southwest 296 341 10,000 97 Level Chicago Center
Thu 09:17:33 PM 40.6500 -86.0994 240° Southwest 295 339 10,100 -492 Climbing Chicago Center
Thu 09:18:11 PM 40.6219 -86.1586 238° Southwest 289 333 9,500 -871 Descending Chicago Center
Thu 09:18:35 PM 40.6106 -86.1875 243° Southwest 285 328 9,200 -1,700 Descending Chicago Center
Thu 09:19:11 PM 40.5861 -86.2389 238° Southwest 251 289 7,800 -1,935 Descending Chicago Center
Thu 09:19:37 PM 40.5753 -86.2664 243° Southwest 257 296 7,200 -1,672 Descending Chicago Center
Thu 09:20:12 PM 40.5478 -86.3269 239° Southwest 261 300 6,100 -1,258 Descending Chicago Center
Thu 09:20:39 PM 40.5381 -86.3475 238° Southwest 259 298 5,900 -1,279 Descending Chicago Center
Thu 09:21:13 PM 40.5094 -86.4094 239° Southwest 257 296 4,800 -1,452 Descending Chicago Center
Thu 09:21:41 PM 40.4939 -86.4436 239° Southwest 257 296 4,400 -1,200 Descending Chicago Center
Thu 09:22:13 PM 40.4733 -86.4867 238° Southwest 257 296 3,600 -1,161 Descending Chicago Center
Thu 09:22:43 PM 40.4586 -86.5242 243° Southwest 256 295 3,200 -689 Descending Chicago Center
Thu 09:23:14 PM 40.4350 -86.5689 235° Southwest 253 291 2,900 -194 Descending Chicago Center
Thu 09:23:45 PM 40.4236 -86.5981 243° Southwest 251 289 3,000  Climbing Chicago Center
Thu 09:24:14 PM 40.4078 -86.6300 237° Southwest 197 227 2,900  Descending Chicago Center
Thu 09:24:47 PM 40.3953 -86.6597 241° Southwest 230 265 3,000 -98 Climbing Chicago Center
Thu 09:25:15 PM 40.3825 -86.6939 244° Southwest 179 206 2,800 -581 Descending Chicago Center
Thu 09:25:49 PM 40.3869 -86.7206 282° West 200 230 2,400 -590 Descending Chicago Center
Thu 09:26:16 PM 40.3883 -86.7572 273° West 168 193 2,200 -97 Descending Chicago Center
Thu 09:26:51 PM 40.3942 -86.7794 289° West 183 211 2,300  Climbing Chicago Center
Thu 09:27:16 PM 40.3947 -86.8094 271° West 133 153 2,200 -97 Descending Chicago Center
Thu 09:27:53 PM 40.3986 -86.8267 287° West 164 189 2,200 -492 Level Chicago Center
Thu 09:28:17 PM 40.3997 -86.8481 274° West 110 127 1,700 -714 Descending Chicago Center
Thu 09:29:17 PM 40.4044 -86.8864 279° West 98 113 1,200 -500 Descending Chicago Center
Thu 09:31:00 PM 40.4000 -86.9333 270° West  Level FlightAware Approximate

Login

Don't have an account? Register now (free) for customized features, flight alerts, and more!